createdAt,value
2022-09-25T00:00:45.065Z,31.10
2022-09-25T00:03:48.272Z,36.97
2022-09-25T00:06:50.781Z,35.60
2022-09-25T00:09:53.281Z,36.30
2022-09-25T00:12:57.118Z,32.20
2022-09-25T00:16:00.000Z,36.70
2022-09-25T00:19:21.043Z,33.20
2022-09-25T00:22:26.133Z,37.80
2022-09-25T00:25:28.818Z,35.97
2022-09-25T00:28:32.748Z,37.17
2022-09-25T00:31:35.863Z,35.53
2022-09-25T00:34:38.984Z,34.27
2022-09-25T00:37:41.474Z,33.23
2022-09-25T00:40:44.020Z,34.57
2022-09-25T00:43:50.595Z,40.93
2022-09-25T00:46:53.186Z,30.97
2022-09-25T00:49:59.254Z,29.50
2022-09-25T00:53:07.902Z,30.70
2022-09-25T00:56:13.345Z,32.63
2022-09-25T00:59:20.855Z,32.03
2022-09-25T01:02:27.702Z,29.60
2022-09-25T01:05:34.316Z,38.07
2022-09-25T01:08:38.818Z,30.53
2022-09-25T01:11:41.433Z,36.67
2022-09-25T01:14:45.302Z,31.47
2022-09-25T01:18:00.379Z,33.73
2022-09-25T01:21:13.840Z,31.90
2022-09-25T01:24:42.585Z,31.33
2022-09-25T01:28:04.343Z,32.53
2022-09-25T01:31:16.026Z,28.97
2022-09-25T01:34:27.081Z,30.47
2022-09-25T01:37:38.953Z,30.13
2022-09-25T01:40:51.014Z,32.03
2022-09-25T01:44:00.763Z,39.30
2022-09-25T01:47:10.161Z,32.70
2022-09-25T01:50:18.955Z,28.47
2022-09-25T01:53:26.970Z,31.27
2022-09-25T01:56:33.743Z,28.37
2022-09-25T01:59:41.076Z,31.63
2022-09-25T02:02:49.087Z,29.40
2022-09-25T02:05:56.222Z,31.33
2022-09-25T02:09:04.274Z,29.50
2022-09-25T02:12:13.355Z,29.97
2022-09-25T02:15:19.735Z,28.67
2022-09-25T02:18:42.874Z,29.27
2022-09-25T02:21:51.779Z,29.83
2022-09-25T02:24:59.542Z,30.40
2022-09-25T02:28:02.830Z,33.73
2022-09-25T02:31:11.083Z,31.33
2022-09-25T02:34:15.556Z,31.07
2022-09-25T02:37:18.990Z,31.07
2022-09-25T02:40:27.815Z,43.93
2022-09-25T02:43:45.456Z,28.77
2022-09-25T02:46:56.886Z,31.00
2022-09-25T02:50:09.782Z,26.83
2022-09-25T02:53:18.601Z,28.07
2022-09-25T02:56:29.376Z,26.47
2022-09-25T02:59:37.346Z,25.93
2022-09-25T03:02:42.373Z,31.73
2022-09-25T03:05:48.279Z,29.03
2022-09-25T03:08:55.069Z,28.83
2022-09-25T03:11:57.558Z,30.10
2022-09-25T03:15:00.164Z,32.03
2022-09-25T03:18:02.662Z,30.80
2022-09-25T03:21:06.587Z,32.53
2022-09-25T03:24:09.927Z,32.50
2022-09-25T03:27:12.481Z,30.47
2022-09-25T03:30:15.285Z,30.20
2022-09-25T03:33:17.913Z,36.07
2022-09-25T03:36:23.755Z,26.10
2022-09-25T03:39:26.247Z,26.50
2022-09-25T03:42:28.780Z,26.30
2022-09-25T03:45:31.277Z,25.73
2022-09-25T03:48:34.138Z,26.93
2022-09-25T03:51:38.868Z,28.30
2022-09-25T03:54:41.583Z,35.53
2022-09-25T03:57:44.053Z,27.03
2022-09-25T04:00:47.736Z,29.63
2022-09-25T04:03:51.134Z,30.23
2022-09-25T04:06:54.969Z,30.93
2022-09-25T04:09:57.455Z,30.00
2022-09-25T04:13:00.000Z,29.60
2022-09-25T04:16:04.504Z,31.40
2022-09-25T04:19:07.744Z,32.13
2022-09-25T04:22:11.549Z,34.20
2022-09-25T04:25:14.182Z,33.93
2022-09-25T04:28:16.680Z,33.23
2022-09-25T04:31:19.196Z,34.53
2022-09-25T04:34:20.752Z,31.73
2022-09-25T04:37:26.198Z,33.43
2022-09-25T04:40:29.589Z,31.70
2022-09-25T04:43:33.427Z,36.90
2022-09-25T04:46:35.954Z,29.77
2022-09-25T04:49:38.988Z,28.40
2022-09-25T04:52:42.786Z,30.80
2022-09-25T04:55:46.135Z,30.03
2022-09-25T04:58:50.668Z,29.13
2022-09-25T05:01:53.299Z,28.70
2022-09-25T05:04:55.868Z,30.50
2022-09-25T05:08:01.387Z,29.77
2022-09-25T05:11:04.031Z,29.50
2022-09-25T05:14:06.943Z,30.37
2022-09-25T05:17:11.362Z,29.23
2022-09-25T05:20:14.075Z,28.30
2022-09-25T05:23:18.652Z,29.03
2022-09-25T05:26:21.391Z,31.50
2022-09-25T05:29:24.085Z,34.03
2022-09-25T05:32:26.752Z,42.93
2022-09-25T05:35:31.465Z,32.07
2022-09-25T05:38:37.537Z,28.60
2022-09-25T05:41:40.251Z,27.90
2022-09-25T05:44:42.955Z,35.60
2022-09-25T05:47:46.053Z,33.77
2022-09-25T05:50:52.402Z,32.57
2022-09-25T05:53:56.910Z,42.97
2022-09-25T05:56:59.576Z,36.97
2022-09-25T06:00:02.834Z,37.10
2022-09-25T06:03:05.536Z,37.33
2022-09-25T06:06:08.390Z,37.60
2022-09-25T06:09:12.414Z,34.40
2022-09-25T06:12:15.067Z,38.03
2022-09-25T06:15:17.580Z,36.90
2022-09-25T06:18:21.439Z,33.63
2022-09-25T06:21:23.907Z,37.23
2022-09-25T06:24:27.738Z,37.00
2022-09-25T06:27:31.022Z,35.53
2022-09-25T06:30:35.776Z,34.23
2022-09-25T06:33:38.245Z,34.33
2022-09-25T06:36:40.754Z,35.00
2022-09-25T06:39:44.563Z,35.43
2022-09-25T06:42:47.046Z,39.33
2022-09-25T06:45:50.050Z,35.33
2022-09-25T06:48:54.277Z,34.50
2022-09-25T06:51:56.889Z,34.13
2022-09-25T06:55:01.057Z,37.73
2022-09-25T06:58:04.254Z,34.53
2022-09-25T07:01:10.267Z,39.20
2022-09-25T07:04:13.350Z,34.87
2022-09-25T07:07:18.602Z,33.50
2022-09-25T07:10:22.541Z,35.13
2022-09-25T07:13:26.625Z,37.47
2022-09-25T07:16:30.685Z,36.37
2022-09-25T07:19:33.258Z,34.03
2022-09-25T07:22:35.856Z,33.37
2022-09-25T07:25:39.849Z,31.83
2022-09-25T07:28:44.809Z,33.83
2022-09-25T07:31:47.275Z,37.63
2022-09-25T07:34:51.607Z,35.80
2022-09-25T07:37:56.765Z,32.60
2022-09-25T07:41:00.612Z,35.63
2022-09-25T07:44:27.402Z,31.70
2022-09-25T07:47:25.993Z,33.13
2022-09-25T07:50:29.286Z,32.40
2022-09-25T07:53:31.824Z,34.00
2022-09-25T07:56:37.979Z,34.73
2022-09-25T07:59:40.485Z,32.73
2022-09-25T08:02:43.011Z,37.87
2022-09-25T08:05:45.512Z,35.40
2022-09-25T08:08:48.026Z,37.37
2022-09-25T08:11:51.881Z,33.87
2022-09-25T08:14:54.443Z,38.27
2022-09-25T08:17:56.946Z,39.07
2022-09-25T08:21:02.069Z,35.07
2022-09-25T08:24:04.855Z,38.00
2022-09-25T08:27:08.758Z,36.67
2022-09-25T08:30:13.697Z,35.57
2022-09-25T08:33:16.345Z,38.40
2022-09-25T08:36:19.327Z,37.93
2022-09-25T08:39:21.841Z,39.17
2022-09-25T08:42:30.995Z,38.33
2022-09-25T08:45:53.962Z,34.97
2022-09-25T08:49:06.057Z,29.63
2022-09-25T08:52:15.510Z,29.47
2022-09-25T08:55:23.723Z,31.67
2022-09-25T08:58:30.204Z,29.30
2022-09-25T09:01:43.612Z,31.83
2022-09-25T09:04:51.198Z,34.30
2022-09-25T09:07:59.148Z,29.17
2022-09-25T09:11:08.928Z,28.63
2022-09-25T09:14:20.669Z,30.60
2022-09-25T09:17:26.691Z,33.37
2022-09-25T09:20:38.869Z,28.33
2022-09-25T09:23:51.138Z,33.00
2022-09-25T09:27:13.667Z,33.03
2022-09-25T09:30:20.446Z,30.50
2022-09-25T09:33:39.093Z,33.00
2022-09-25T09:36:50.066Z,27.43
2022-09-25T09:40:06.390Z,28.00
2022-09-25T09:43:31.545Z,29.17
2022-09-25T09:46:45.006Z,30.70
2022-09-25T09:49:54.602Z,27.23
2022-09-25T09:53:03.062Z,28.23
2022-09-25T09:56:14.794Z,27.03
2022-09-25T09:59:20.710Z,26.93
2022-09-25T10:02:34.595Z,23.17
2022-09-25T10:05:40.676Z,24.27
2022-09-25T10:08:43.281Z,19.20
2022-09-25T10:11:48.506Z,19.10
2022-09-25T10:14:51.025Z,17.33
2022-09-25T10:17:58.582Z,24.47
2022-09-25T10:21:04.885Z,64.87
2022-09-25T10:24:07.541Z,114.63
2022-09-25T10:27:23.339Z,14.70
2022-09-25T10:30:25.882Z,13.87
2022-09-25T10:33:31.560Z,15.80
2022-09-25T10:36:40.984Z,26.77
2022-09-25T10:39:45.596Z,22.17
2022-09-25T10:42:48.642Z,26.57
2022-09-25T10:45:54.131Z,27.00
2022-09-25T10:49:31.230Z,29.80
2022-09-25T10:52:49.708Z,20.90
2022-09-25T10:55:54.798Z,31.80
2022-09-25T10:59:01.710Z,11.30
2022-09-25T11:02:14.804Z,139.07
2022-09-25T11:05:21.937Z,25.00
2022-09-25T11:08:29.482Z,180.13
2022-09-25T11:11:32.538Z,31.83
2022-09-25T11:14:37.414Z,15.50
2022-09-25T11:17:42.298Z,13.50
2022-09-25T11:21:02.336Z,9.57
2022-09-25T11:24:16.646Z,23.10
2022-09-25T11:27:24.863Z,16.03
2022-09-25T11:30:35.976Z,13.27
2022-09-25T11:33:44.248Z,12.60
2022-09-25T11:36:53.803Z,22.87
2022-09-25T11:40:29.338Z,20.37
2022-09-25T11:43:42.023Z,12.00
2022-09-25T11:46:51.167Z,12.30
2022-09-25T11:49:55.189Z,12.03
2022-09-25T11:53:10.830Z,14.50
2022-09-25T11:56:26.282Z,11.77
2022-09-25T11:59:40.126Z,13.03
2022-09-25T12:03:06.308Z,9.87
2022-09-25T12:06:29.220Z,9.40
2022-09-25T12:09:58.263Z,11.87
2022-09-25T12:13:11.690Z,11.07
2022-09-25T12:16:22.549Z,16.80
2022-09-25T12:19:37.964Z,15.20
2022-09-25T12:22:53.815Z,184.27
2022-09-25T12:26:17.192Z,478.40
2022-09-25T12:29:35.960Z,335.77
2022-09-25T12:32:53.838Z,191.10
2022-09-25T12:36:00.444Z,28.87
2022-09-25T12:39:10.421Z,23.30
2022-09-25T12:42:20.871Z,25.27
2022-09-25T12:45:28.591Z,25.17
2022-09-25T12:48:38.098Z,14.80
2022-09-25T12:51:44.388Z,17.67
2022-09-25T12:54:55.229Z,13.37
2022-09-25T12:58:18.078Z,8.30
2022-09-25T13:01:25.477Z,8.07
2022-09-25T13:04:42.272Z,8.67
2022-09-25T13:07:51.156Z,7.90
2022-09-25T13:10:57.804Z,8.47
2022-09-25T13:14:04.168Z,8.80
2022-09-25T13:17:11.406Z,8.50
2022-09-25T13:20:44.810Z,5.00
2022-09-25T13:23:50.713Z,11.83
2022-09-25T13:26:56.729Z,20.97
2022-09-25T13:30:02.292Z,19.33
2022-09-25T13:33:04.962Z,27.37
2022-09-25T13:36:10.284Z,131.30
2022-09-25T13:39:39.399Z,24.23
2022-09-25T13:42:44.062Z,13.37
2022-09-25T13:45:48.302Z,21.60
2022-09-25T13:48:52.050Z,7.77
2022-09-25T13:51:54.551Z,8.37
2022-09-25T13:55:15.775Z,9.23
2022-09-25T13:58:19.351Z,8.77
2022-09-25T14:01:35.296Z,6.87
2022-09-25T14:04:40.067Z,5.57
2022-09-25T14:07:42.915Z,5.90
2022-09-25T14:10:47.902Z,5.50
2022-09-25T14:13:55.197Z,6.40
2022-09-25T14:17:00.529Z,103.60
2022-09-25T14:20:07.923Z,75.27
2022-09-25T14:23:16.212Z,16.97
2022-09-25T14:26:21.564Z,9.20
2022-09-25T14:29:26.226Z,14.07
2022-09-25T14:32:55.180Z,10.90
2022-09-25T14:36:08.505Z,8.23
2022-09-25T14:39:28.443Z,8.23
2022-09-25T14:42:52.320Z,7.03
2022-09-25T14:46:07.578Z,10.20
2022-09-25T14:49:24.286Z,10.30
2022-09-25T14:52:29.754Z,7.10
2022-09-25T14:55:36.689Z,9.67
2022-09-25T14:58:44.299Z,9.27
2022-09-25T15:01:49.201Z,8.37
2022-09-25T15:04:57.982Z,8.50
2022-09-25T15:08:02.264Z,6.87
2022-09-25T15:11:11.655Z,11.63
2022-09-25T15:14:19.357Z,8.50
2022-09-25T15:17:24.646Z,6.10
2022-09-25T15:20:30.908Z,7.83
2022-09-25T15:23:35.345Z,7.77
2022-09-25T15:26:45.423Z,11.47
2022-09-25T15:29:49.357Z,8.77
2022-09-25T15:32:58.519Z,10.17
2022-09-25T15:36:15.723Z,9.40
2022-09-25T15:39:22.826Z,6.33
2022-09-25T15:42:25.334Z,11.67
2022-09-25T15:45:40.459Z,11.43
2022-09-25T15:48:52.930Z,14.00
2022-09-25T15:52:00.929Z,12.30
2022-09-25T15:55:07.964Z,12.77
2022-09-25T15:58:15.609Z,11.90
2022-09-25T16:01:40.113Z,9.33
2022-09-25T16:04:49.524Z,12.87
2022-09-25T16:07:56.042Z,11.27
2022-09-25T16:11:16.677Z,11.77
2022-09-25T16:14:23.141Z,11.57
2022-09-25T16:17:32.915Z,7.47
2022-09-25T16:20:37.766Z,9.47
2022-09-25T16:23:42.971Z,8.57
2022-09-25T16:26:46.300Z,9.43
2022-09-25T16:29:48.925Z,11.90
2022-09-25T16:32:54.491Z,17.17
2022-09-25T16:36:18.356Z,8.90
2022-09-25T16:39:28.258Z,16.20
2022-09-25T16:42:39.331Z,8.53
2022-09-25T16:45:58.926Z,10.30
2022-09-25T16:49:04.482Z,12.87
2022-09-25T16:52:08.850Z,10.40
2022-09-25T16:55:23.030Z,10.43
2022-09-25T16:58:25.854Z,10.50
2022-09-25T17:01:29.356Z,11.67
2022-09-25T17:04:32.170Z,15.67
2022-09-25T17:07:34.863Z,9.20
2022-09-25T17:10:41.614Z,6.13
2022-09-25T17:13:44.411Z,11.53
2022-09-25T17:16:46.877Z,11.20
2022-09-25T17:19:50.123Z,10.60
2022-09-25T17:22:53.674Z,14.57
2022-09-25T17:26:03.523Z,7.70
2022-09-25T17:29:06.276Z,17.40
2022-09-25T17:32:13.806Z,12.03
2022-09-25T17:35:36.297Z,19.07
2022-09-25T17:38:39.244Z,15.20
2022-09-25T17:41:43.373Z,13.10
2022-09-25T17:44:47.356Z,16.33
2022-09-25T17:47:49.856Z,18.57
2022-09-25T17:50:53.575Z,11.13
2022-09-25T17:53:56.877Z,10.97
2022-09-25T17:57:00.775Z,14.30
2022-09-25T18:00:04.622Z,9.23
2022-09-25T18:03:07.361Z,12.23
2022-09-25T18:06:09.944Z,11.63
2022-09-25T18:09:12.587Z,9.13
2022-09-25T18:12:16.439Z,9.87
2022-09-25T18:15:19.167Z,14.20
2022-09-25T18:18:21.792Z,8.70
2022-09-25T18:21:41.741Z,8.00
2022-09-25T18:24:44.979Z,12.37
2022-09-25T18:27:49.020Z,8.70
2022-09-25T18:30:51.529Z,8.53
2022-09-25T18:33:54.701Z,6.73
2022-09-25T18:36:57.186Z,6.90
2022-09-25T18:39:59.695Z,6.77
2022-09-25T18:43:03.549Z,9.43
2022-09-25T18:46:06.494Z,7.97
2022-09-25T18:49:09.422Z,10.50
2022-09-25T18:52:11.929Z,6.53
2022-09-25T18:55:14.510Z,5.03
2022-09-25T18:58:18.907Z,9.63
2022-09-25T19:01:22.161Z,18.27
2022-09-25T19:04:25.741Z,11.67
2022-09-25T19:07:29.791Z,5.33
2022-09-25T19:10:34.505Z,10.20
2022-09-25T19:13:38.327Z,11.17
2022-09-25T19:16:40.910Z,11.80
2022-09-25T19:19:43.948Z,12.20
2022-09-25T19:22:46.405Z,11.20
2022-09-25T19:25:56.438Z,13.13
2022-09-25T19:29:01.398Z,11.93
2022-09-25T19:32:05.360Z,9.90
2022-09-25T19:35:11.038Z,14.23
2022-09-25T19:38:13.643Z,9.90
2022-09-25T19:41:18.296Z,14.97
2022-09-25T19:44:22.886Z,14.03
2022-09-25T19:47:25.378Z,14.87
2022-09-25T19:50:28.039Z,9.97
2022-09-25T19:53:30.533Z,10.47
2022-09-25T19:56:33.484Z,8.73
2022-09-25T19:59:37.355Z,8.57
2022-09-25T20:02:39.900Z,10.20
2022-09-25T20:05:43.701Z,11.17
2022-09-25T20:08:46.230Z,7.00
2022-09-25T20:11:48.764Z,6.60
2022-09-25T20:14:52.597Z,9.17
2022-09-25T20:17:56.308Z,10.50
2022-09-25T20:21:02.964Z,13.27
2022-09-25T20:24:07.913Z,9.27
2022-09-25T20:27:10.381Z,10.10
2022-09-25T20:30:14.510Z,10.40
2022-09-25T20:33:16.994Z,11.40
2022-09-25T20:36:19.553Z,9.17
2022-09-25T20:39:22.905Z,8.93
2022-09-25T20:42:25.663Z,9.87
2022-09-25T20:45:29.499Z,6.40
2022-09-25T20:48:32.309Z,8.77
2022-09-25T20:51:36.736Z,9.57
2022-09-25T20:54:41.663Z,11.80
2022-09-25T20:57:44.173Z,8.73
2022-09-25T21:00:49.025Z,7.40
2022-09-25T21:03:52.718Z,8.63
2022-09-25T21:06:55.748Z,10.07
2022-09-25T21:09:58.434Z,8.80
2022-09-25T21:13:00.911Z,10.53
2022-09-25T21:16:06.530Z,6.57
2022-09-25T21:19:14.120Z,8.17
2022-09-25T21:22:16.638Z,7.60
2022-09-25T21:25:20.136Z,15.50
2022-09-25T21:28:22.726Z,6.30
2022-09-25T21:31:28.627Z,13.03
2022-09-25T21:34:31.363Z,6.23
2022-09-25T21:37:33.906Z,8.77
2022-09-25T21:40:36.445Z,7.53
2022-09-25T21:43:39.517Z,7.63
2022-09-25T21:46:43.872Z,8.57
2022-09-25T21:49:46.533Z,9.67
2022-09-25T21:52:49.021Z,4.83
2022-09-25T21:56:00.814Z,8.40
2022-09-25T21:59:08.625Z,7.17
2022-09-25T22:02:13.069Z,7.87
2022-09-25T22:05:15.711Z,10.03
2022-09-25T22:08:18.490Z,7.40
2022-09-25T22:11:21.825Z,7.37
2022-09-25T22:14:24.494Z,6.33
2022-09-25T22:17:28.327Z,5.30
2022-09-25T22:20:30.858Z,7.67
2022-09-25T22:23:33.334Z,4.53
2022-09-25T22:26:38.481Z,8.57
2022-09-25T22:29:40.962Z,5.93
2022-09-25T22:32:45.090Z,5.77
2022-09-25T22:35:47.649Z,5.77
2022-09-25T22:38:50.303Z,8.20
2022-09-25T22:41:54.413Z,7.43
2022-09-25T22:44:56.984Z,4.90
2022-09-25T22:48:01.510Z,7.23
2022-09-25T22:51:07.271Z,5.67
2022-09-25T22:54:12.291Z,6.77
2022-09-25T22:57:14.787Z,7.47
2022-09-25T23:00:17.329Z,7.33
2022-09-25T23:03:23.380Z,6.07
2022-09-25T23:06:28.726Z,4.57
2022-09-25T23:09:31.245Z,5.77
2022-09-25T23:12:33.895Z,5.60
2022-09-25T23:15:38.838Z,27.57
2022-09-25T23:18:42.702Z,8.70
2022-09-25T23:21:45.189Z,6.00
2022-09-25T23:24:47.686Z,5.23
2022-09-25T23:27:50.327Z,6.90
2022-09-25T23:30:52.979Z,5.83
2022-09-25T23:33:59.083Z,5.33
2022-09-25T23:37:01.588Z,4.43
2022-09-25T23:40:04.247Z,5.33
2022-09-25T23:43:06.762Z,5.20
2022-09-25T23:46:09.687Z,6.63
2022-09-25T23:49:13.731Z,6.83
2022-09-25T23:52:16.338Z,4.90
2022-09-25T23:55:18.858Z,6.40
2022-09-25T23:58:21.402Z,5.40
